createdAt,value
2022-11-05T00:09:10.455Z,15.20
2022-11-05T00:19:14.366Z,16.20
2022-11-05T00:29:15.994Z,16.60
2022-11-05T00:39:17.709Z,16.30
2022-11-05T00:49:31.561Z,16.20
2022-11-05T00:59:33.184Z,16.50
2022-11-05T01:09:34.846Z,17.80
2022-11-05T01:19:36.523Z,15.90
2022-11-05T01:29:38.178Z,15.90
2022-11-05T01:39:39.859Z,15.80
2022-11-05T01:49:41.659Z,16.70
2022-11-05T01:59:54.162Z,16.30
2022-11-05T02:10:08.680Z,16.20
2022-11-05T02:20:23.079Z,16.40
2022-11-05T02:30:53.649Z,17.00
2022-11-05T02:41:08.476Z,17.00
2022-11-05T02:51:23.656Z,18.40
2022-11-05T03:01:25.371Z,17.50
2022-11-05T03:11:31.061Z,18.00
2022-11-05T03:21:50.398Z,17.60
2022-11-05T03:31:56.287Z,17.00
2022-11-05T03:41:59.624Z,18.90
2022-11-05T03:52:07.722Z,17.20
2022-11-05T04:02:11.611Z,18.10
2022-11-05T04:12:32.233Z,18.60
2022-11-05T04:22:53.762Z,18.90
2022-11-05T04:32:58.314Z,20.50
2022-11-05T04:43:00.646Z,18.30
2022-11-05T04:53:02.316Z,19.60
2022-11-05T05:03:03.968Z,20.30
2022-11-05T05:13:05.679Z,19.70
2022-11-05T05:23:07.368Z,20.50
2022-11-05T05:33:09.268Z,17.80
2022-11-05T05:43:11.406Z,21.50
2022-11-05T05:53:13.572Z,20.40
2022-11-05T06:03:15.552Z,21.50
2022-11-05T06:13:17.437Z,21.90
2022-11-05T06:23:19.072Z,22.00
2022-11-05T06:33:20.785Z,21.70
2022-11-05T06:43:22.783Z,21.00
2022-11-05T06:53:24.451Z,22.30
2022-11-05T07:03:26.344Z,22.50
2022-11-05T07:13:28.284Z,22.50
2022-11-05T07:23:29.983Z,23.40
2022-11-05T07:33:36.324Z,22.20
2022-11-05T07:43:38.554Z,23.00
2022-11-05T07:53:45.040Z,21.90
2022-11-05T08:03:47.364Z,23.40
2022-11-05T08:13:49.270Z,24.10
2022-11-05T08:23:50.976Z,23.90
2022-11-05T08:33:55.172Z,22.90
2022-11-05T08:44:00.137Z,23.50
2022-11-05T08:54:01.800Z,25.20
2022-11-05T09:04:03.721Z,29.60
2022-11-05T09:14:05.479Z,27.10
2022-11-05T09:24:07.486Z,22.10
2022-11-05T09:34:09.198Z,28.20
2022-11-05T09:44:23.560Z,27.30
2022-11-05T09:54:30.946Z,27.10
2022-11-05T10:04:33.721Z,26.10
2022-11-05T10:14:40.462Z,26.10
2022-11-05T10:24:46.593Z,26.20
2022-11-05T10:34:49.826Z,26.10
2022-11-05T10:45:23.834Z,28.70
2022-11-05T10:55:37.058Z,34.10
2022-11-05T11:05:40.094Z,30.70
2022-11-05T11:15:41.774Z,28.20
2022-11-05T11:25:58.080Z,28.80
2022-11-05T11:36:00.483Z,28.90
2022-11-05T11:46:08.788Z,29.60
2022-11-05T11:56:16.910Z,29.90
2022-11-05T12:06:45.619Z,29.80
2022-11-05T12:17:17.636Z,28.70
2022-11-05T12:27:25.541Z,31.00
2022-11-05T12:37:34.608Z,30.20
2022-11-05T12:47:49.135Z,33.00
2022-11-05T12:58:00.638Z,32.90
2022-11-05T13:08:10.081Z,33.40
2022-11-05T13:18:18.603Z,38.70
2022-11-05T13:28:23.290Z,34.90
2022-11-05T13:38:44.819Z,37.80
2022-11-05T13:49:02.668Z,34.90
2022-11-05T13:59:13.818Z,33.00
2022-11-05T14:09:23.417Z,36.40
2022-11-05T14:19:32.014Z,30.30
2022-11-05T14:29:38.088Z,34.60
2022-11-05T14:39:40.422Z,35.40
2022-11-05T14:49:53.478Z,37.10
2022-11-05T14:59:57.888Z,38.00
2022-11-05T15:10:10.671Z,39.60
2022-11-05T15:20:20.049Z,39.30
2022-11-05T15:30:23.557Z,39.30
2022-11-05T15:40:31.416Z,39.10
2022-11-05T15:50:33.203Z,38.40
2022-11-05T16:00:36.243Z,36.70
2022-11-05T16:10:38.476Z,36.80
2022-11-05T16:20:40.256Z,40.70
2022-11-05T16:30:58.489Z,38.20
2022-11-05T16:41:00.149Z,39.30
2022-11-05T16:51:01.865Z,39.20
2022-11-05T17:01:07.555Z,34.80
2022-11-05T17:11:20.161Z,37.80
2022-11-05T17:21:31.058Z,38.80
2022-11-05T17:31:32.833Z,34.70
2022-11-05T17:41:34.504Z,30.90
2022-11-05T17:51:36.308Z,31.10
2022-11-05T18:01:42.686Z,31.40
2022-11-05T18:11:45.474Z,30.40
2022-11-05T18:21:47.146Z,25.60
2022-11-05T18:31:48.887Z,18.00
2022-11-05T18:41:50.532Z,14.10
2022-11-05T18:51:52.523Z,12.30
2022-11-05T19:02:07.895Z,11.40
2022-11-05T19:12:09.701Z,10.30
2022-11-05T19:22:11.465Z,10.60
2022-11-05T19:32:13.147Z,11.80
2022-11-05T19:42:14.794Z,17.70
2022-11-05T19:52:16.471Z,26.90
2022-11-05T20:02:18.238Z,12.90
2022-11-05T20:12:19.971Z,14.30
2022-11-05T20:22:23.278Z,14.60
2022-11-05T20:32:26.864Z,15.60
2022-11-05T20:42:28.637Z,16.00
2022-11-05T20:52:30.419Z,14.70
2022-11-05T21:02:34.598Z,14.90
2022-11-05T21:12:36.461Z,15.10
2022-11-05T21:22:38.522Z,14.60
2022-11-05T21:32:40.181Z,13.20
2022-11-05T21:42:42.193Z,12.60
2022-11-05T21:53:02.650Z,10.10
2022-11-05T22:03:04.352Z,15.30
2022-11-05T22:13:14.966Z,15.90
2022-11-05T22:23:29.142Z,16.30
2022-11-05T22:44:57.623Z,14.50
2022-11-05T22:55:02.011Z,14.80
2022-11-05T23:05:22.240Z,14.30
2022-11-05T23:15:45.438Z,13.70
2022-11-05T23:26:25.164Z,10.40
2022-11-05T23:36:45.555Z,12.40
2022-11-05T23:47:05.829Z,14.20
2022-11-05T23:57:07.451Z,13.70
